Flight Track Log - Related Links

Times and Time Zones

All times are in EDT time to prevent confusion due to time zone crossing. See the SWA1435 flight status page for this flight to view local times or setup timezone preferences in your user account.

Time Position Orientation Groundspeed Altitude Reporting Facility
EDT Latitude Longitude Course Direction KTS MPH feet Rate Location/Type
Mon 09:34:12 AM 38.7278 -90.2800 122° Southeast 147 169 2,000  Level FAA TRACON SMA TRACON (SMA)
Mon 09:34:31 AM 38.7197 -90.2636 122° Southeast 165 190 2,600 2,550 Climbing FAA TRACON SMA TRACON (SMA)
Mon 09:34:52 AM 38.7047 -90.2436 134° Southeast 206 237 3,700 3,220 Climbing FAA TRACON SMA TRACON (SMA)
Mon 09:35:12 AM 38.6864 -90.2436 180° South 226 260 4,800 3,450 Climbing FAA TRACON SMA TRACON (SMA)
Mon 09:35:32 AM 38.6708 -90.2583 216° Southwest 232 267 6,000 3,538 Climbing FAA TRACON SMA TRACON (SMA)
Mon 09:35:51 AM 38.6650 -90.2822 253° West 238 274 7,100 3,150 Climbing FAA TRACON SMA TRACON (SMA)
Mon 09:36:12 AM 38.6633 -90.3172 267° West 256 295 8,100 2,927 Climbing FAA TRACON SMA TRACON (SMA)
Mon 09:36:32 AM 38.6739 -90.3447 296° West 283 326 9,100 3,600 Climbing FAA TRACON SMA TRACON (SMA)
Mon 09:36:52 AM 38.6878 -90.3719 303° West 294 338 10,500 2,850 Climbing FAA TRACON SMA TRACON (SMA)
Mon 09:37:12 AM 38.7108 -90.4097 308° West 345 397 11,000 2,100 Climbing FAA TRACON SMA TRACON (SMA)
Mon 09:37:32 AM 38.7314 -90.4400 311° West 366 421 11,900 3,300 Climbing FAA TRACON SMA TRACON (SMA)
Mon 09:37:52 AM 38.7514 -90.4692 311° West 359 413 13,200 3,538 Climbing FAA TRACON SMA TRACON (SMA)
Mon 09:38:11 AM 38.7708 -90.4986 310° West 352 405 14,200 3,600 Climbing FAA TRACON SMA TRACON (SMA)
Mon 09:38:32 AM 38.7950 -90.5358 310° West 353 406 15,600 3,659 Climbing FAA TRACON SMA TRACON (SMA)
Mon 09:38:52 AM 38.8144 -90.5661 310° West 357 411 16,700 3,150 Climbing FAA TRACON SMA TRACON (SMA)
Mon 09:39:12 AM 38.8342 -90.5969 309° West 360 414 17,700 2,927 Climbing FAA TRACON SMA TRACON (SMA)
Mon 09:39:33 AM 38.8597 -90.6358 310° West 368 423 18,700 2,769 Climbing FAA TRACON SMA TRACON (SMA)
Mon 09:39:51 AM 38.8800 -90.6678 309° West 374 430 19,500 2,462 Climbing FAA TRACON SMA TRACON (SMA)
Mon 09:40:12 AM 38.9003 -90.7003 309° West 380 437 20,300 2,727 Climbing FAA TRACON SMA TRACON (SMA)
Mon 09:40:35 AM 38.9261 -90.7422 308° West 388 447 21,500 3,286 Climbing FAA TRACON SMA TRACON (SMA)
Mon 09:40:54 AM 38.9531 -90.7836 310° West 392 451 22,600 2,757 Climbing FAA TRACON SMA TRACON (SMA)
Mon 09:41:12 AM 38.9675 -90.8097 305° West 392 451 23,200 2,526 Climbing FAA TRACON SMA TRACON (SMA)
Mon 09:41:32 AM 38.9956 -90.8511 311° West 398 458 24,200 2,615 Climbing FAA TRACON SMA TRACON (SMA)
Mon 09:41:51 AM 39.0164 -90.8861 307° West 400 460 24,900 1,950 Climbing FAA TRACON SMA TRACON (SMA)
Mon 09:42:12 AM 39.0394 -90.9200 311° West 406 467 25,500 2,049 Climbing FAA TRACON SMA TRACON (SMA)
Mon 09:42:32 AM 39.0650 -90.9661 306° West 413 475 26,300 2,250 Climbing FAA TRACON SMA TRACON (SMA)
Mon 09:42:52 AM 39.0886 -91.0008 311° West 418 481 27,000 2,000 Climbing FAA TRACON SMA TRACON (SMA)
Mon 09:43:11 AM 39.1094 -91.0386 305° West 420 483 27,600 2,250 Climbing FAA TRACON SMA TRACON (SMA)
Mon 09:43:32 AM 39.1308 -91.0894 298° West 421 484 28,500 2,195 Climbing FAA TRACON SMA TRACON (SMA)
Mon 09:43:52 AM 39.1489 -91.1294 300° West 421 484 29,100 2,100 Climbing FAA TRACON SMA TRACON (SMA)
Mon 09:44:12 AM 39.1658 -91.1708 298° West 421 484 29,900 2,850 Climbing FAA TRACON SMA TRACON (SMA)
Mon 09:44:32 AM 39.1869 -91.2211 298° West 418 481 31,000 2,700 Climbing FAA TRACON SMA TRACON (SMA)
Mon 09:44:52 AM 39.2047 -91.2600 301° West 412 474 31,700 1,500 Climbing FAA TRACON SMA TRACON (SMA)
Mon 09:45:12 AM 39.2203 -91.3006 296° West 410 472 32,000 300 Climbing FAA TRACON SMA TRACON (SMA)
Mon 09:45:52 AM 39.2561 -91.3911 297° West 409 471 32,000  Level FAA TRACON SMA TRACON (SMA)
Mon 09:46:12 AM 39.2722 -91.4314 297° West 411 473 32,000  Level FAA TRACON SMA TRACON (SMA)
Mon 09:46:28 AM 39.2750 -91.5025 273° West 413 475 32,000  Level Kansas City Center
Mon 09:47:29 AM 39.3256 -91.6333 297° West 410 472 32,000  Level Kansas City Center
Mon 09:48:30 AM 39.3883 -91.7928 297° West 412 474 32,000  Level Kansas City Center
Mon 09:49:33 AM 39.4400 -91.9244 297° West 413 475 32,000  Level Kansas City Center
Mon 09:50:33 AM 39.4903 -92.0572 296° West 413 475 32,000  Level Kansas City Center
Mon 09:51:37 AM 39.5406 -92.1867 297° West 409 471 32,000  Level Kansas City Center
Mon 09:52:37 AM 39.5919 -92.3178 297° West 408 470 32,000  Level Kansas City Center
Mon 09:53:40 AM 39.6422 -92.4478 297° West 407 468 32,000 -288 Level Kansas City Center
Mon 09:54:42 AM 39.7247 -92.5889 307° West 411 473 31,400 -787 Descending Kansas City Center
Mon 09:55:42 AM 39.7981 -92.7019 310° West 410 472 30,400 -992 Descending Kansas City Center
Mon 09:56:43 AM 39.8689 -92.8147 309° West 405 466 29,400 -960 Descending Kansas City Center
Mon 09:57:47 AM 39.9397 -92.9242 310° West 397 457 28,400 -667 Descending Kansas City Center
Mon 09:58:49 AM 40.0069 -93.0308 309° West 387 445 28,000 -149 Descending Kansas City Center
Mon 10:00:28 AM 40.1353 -93.2347 310° West 406 467 28,000  Level Minneapolis Center
Mon 10:00:53 AM 40.1506 -93.2578 311° West 404 465 28,000  Level Kansas City Center
Mon 10:01:53 AM 40.2381 -93.3964 310° West 411 473 28,000  Level Kansas City Center
Mon 10:02:56 AM 40.3103 -93.5122 309° West 412 474 28,000  Level Kansas City Center
Mon 10:03:58 AM 40.3836 -93.6275 310° West 412 474 28,000  Level Kansas City Center
Mon 10:04:34 AM 40.4253 -93.6961 309° West 411 473 28,000  Level Minneapolis Center
Mon 10:05:35 AM 40.4969 -93.8100 310° West 408 470 28,000  Level Minneapolis Center
Mon 10:06:36 AM 40.5675 -93.9239 309° West 405 466 28,000 -390 Level Minneapolis Center
Mon 10:07:38 AM 40.6108 -94.0533 294° West 391 450 27,200 -1,024 Descending Minneapolis Center
Mon 10:08:39 AM 40.6344 -94.2114 281° West 370 426 25,900 -1,131 Descending Minneapolis Center
Mon 10:09:40 AM 40.6572 -94.3403 283° West 365 420 24,900 -976 Descending Minneapolis Center
Mon 10:10:42 AM 40.6772 -94.4717 281° West 367 422 23,900 -976 Descending Minneapolis Center
Mon 10:11:43 AM 40.6983 -94.6017 282° West 366 421 22,900 -1,033 Descending Minneapolis Center
Mon 10:12:44 AM 40.7217 -94.7286 284° West 362 417 21,800 -1,561 Descending Minneapolis Center
Mon 10:13:46 AM 40.7422 -94.8564 282° West 359 413 19,700 -2,139 Descending Minneapolis Center
Mon 10:14:25 AM 40.7697 -94.9444 292° West 349 402 18,200 -1,967 Descending Minneapolis Center
Mon 10:14:47 AM 40.7600 -94.9847 252° West 356 410 17,700 -2,143 Descending Minneapolis Center
Mon 10:15:07 AM 40.7803 -95.0314 300° West 347 399 16,700 -2,361 Descending Minneapolis Center
Mon 10:15:48 AM 40.7853 -95.1083 275° West 352 405 15,300 -3,134 Descending Minneapolis Center
Mon 10:16:14 AM 40.8381 -95.1617 323° Northwest 376 433 13,200 -3,194 Descending Minneapolis Center
Mon 10:16:50 AM 40.8550 -95.2147 293° West 382 440 12,000 -3,000 Descending Minneapolis Center
Mon 10:17:14 AM 40.9028 -95.2722 318° Northwest 387 445 10,200 -1,869 Descending Minneapolis Center
Mon 10:17:51 AM 40.9336 -95.3431 300° West 380 437 10,100 -174 Descending Minneapolis Center
Mon 10:18:23 AM 40.9675 -95.3883 315° West 322 371 10,000 -677 Descending Minneapolis Center
Mon 10:18:53 AM 40.9867 -95.4314 301° West 340 391 9,400 -1,292 Descending Minneapolis Center
Mon 10:19:28 AM 41.0222 -95.4811 313° West 289 333 8,600 -1,574 Descending Minneapolis Center
Mon 10:19:54 AM 41.0378 -95.5161 301° West 311 358 7,800 -1,700 Descending Minneapolis Center
Mon 10:20:28 AM 41.0681 -95.5669 308° West 281 323 6,900 -1,548 Descending Minneapolis Center
Mon 10:20:56 AM 41.0814 -95.6031 296° West 296 341 6,200 -1,745 Descending Minneapolis Center
Mon 10:21:23 AM 41.1008 -95.6514 298° West 272 313 5,300 -1,770 Descending Minneapolis Center
Mon 10:21:57 AM 41.1150 -95.6919 295° West 282 325 4,400 -1,672 Descending Minneapolis Center
Mon 10:22:24 AM 41.1378 -95.7328 307° West 264 304 3,600 -1,161 Descending Minneapolis Center
Mon 10:22:59 AM 41.1631 -95.7564 325° Northwest 266 306 3,200 -667 Descending Minneapolis Center
Mon 10:23:18 AM 41.1872 -95.7797 324° Northwest 227 261 3,000 -295 Descending Minneapolis Center
Mon 10:24:00 AM 41.2111 -95.8025 324° Northwest 236 272 2,900 -393 Descending Minneapolis Center
Mon 10:24:19 AM 41.2253 -95.8194 318° Northwest 153 176 2,600 -677 Descending Minneapolis Center
Mon 10:25:02 AM 41.2447 -95.8350 329° Northwest 188 216 2,200 -750 Descending Minneapolis Center
Mon 10:26:03 AM 41.2825 -95.8711 324° Northwest 152 175 1,300 -585 Descending Minneapolis Center
Mon 10:27:05 AM 41.3108 -95.8978 325° Northwest 147 169 1,000 -290 Descending Minneapolis Center

Login

Don't have an account? Register now (free) for customized features, flight alerts, and more!